Time;durP1;ratioP1;P1;durP2;ratioP2;P2;SDS_P1;SDS_P2;PMS_P1;PMS_P2;Temp;Humidity;BMP_temperature;BMP_pressure;BME280_temperature;BME280_humidity;BME280_pressure;Samples;Min_cycle;Max_cycle;Signal;HPM_P1;HPM_P2
2022/01/17 00:02:30;;;;;;;24.30;14.93;;;2.50;99.90;;;;;;5036671;28;20202;-87
2022/01/17 00:04:55;;;;;;;22.27;15.13;;;2.50;99.90;;;;;;5033983;28;20252;-87
2022/01/17 00:07:21;;;;;;;20.83;13.43;;;2.50;99.90;;;;;;5033985;28;20206;-87
2022/01/17 00:09:47;;;;;;;19.87;13.10;;;2.50;99.90;;;;;;5033447;28;20536;-87
2022/01/17 00:12:13;;;;;;;22.97;15.83;;;2.50;99.90;;;;;;5033771;28;20249;-87
2022/01/17 00:14:40;;;;;;;23.53;14.63;;;2.50;99.90;;;;;;5032779;28;20189;-88
2022/01/17 00:19:43;;;;;;;21.93;14.33;;;2.50;99.90;;;;;;5033806;28;20178;-87
2022/01/17 00:22:15;;;;;;;24.70;14.40;;;2.50;99.90;;;;;;5033465;28;20206;-87
2022/01/17 00:24:41;;;;;;;20.83;12.70;;;2.50;99.90;;;;;;5033496;28;20191;-87
2022/01/17 00:27:08;;;;;;;22.60;13.40;;;2.50;99.90;;;;;;5033413;28;20210;-87
2022/01/17 00:29:34;;;;;;;20.03;12.27;;;2.50;99.90;;;;;;5033571;28;20178;-87
2022/01/17 00:32:01;;;;;;;20.00;13.23;;;2.50;99.90;;;;;;5033241;28;20202;-87
2022/01/17 00:34:27;;;;;;;20.07;12.77;;;2.50;99.90;;;;;;5050538;28;20185;-87
2022/01/17 00:36:53;;;;;;;20.70;12.30;;;2.50;99.90;;;;;;5036778;28;20208;-87
2022/01/17 00:39:19;;;;;;;22.27;12.00;;;2.60;99.90;;;;;;5036418;28;20277;-87
2022/01/17 00:41:45;;;;;;;17.43;11.20;;;2.60;99.90;;;;;;5036366;28;20213;-87
2022/01/17 00:44:11;;;;;;;18.97;12.07;;;2.60;99.90;;;;;;5036502;28;20178;-87
2022/01/17 00:46:37;;;;;;;18.43;11.47;;;2.60;99.90;;;;;;5036329;28;20185;-87
2022/01/17 00:49:04;;;;;;;18.57;10.70;;;2.50;99.90;;;;;;5036378;28;20213;-87
2022/01/17 00:51:30;;;;;;;18.40;11.90;;;2.60;99.90;;;;;;5052782;28;20198;-87
2022/01/17 00:53:56;;;;;;;20.53;12.23;;;2.60;99.90;;;;;;5053018;28;20178;-87
2022/01/17 00:56:23;;;;;;;15.93;10.70;;;2.60;99.90;;;;;;5036197;28;20204;-87
2022/01/17 00:58:49;;;;;;;17.20;10.87;;;2.60;99.90;;;;;;5036045;28;20576;-87
2022/01/17 01:01:16;;;;;;;14.93;9.60;;;2.60;99.90;;;;;;5036062;28;20209;-87
2022/01/17 01:03:43;;;;;;;17.50;11.13;;;2.60;99.90;;;;;;5036420;28;20182;-87
2022/01/17 01:06:09;;;;;;;16.60;11.23;;;2.60;99.90;;;;;;5052653;28;20205;-87
2022/01/17 01:08:35;;;;;;;17.13;11.47;;;2.60;99.90;;;;;;5035740;28;20216;-87
2022/01/17 01:11:01;;;;;;;16.47;11.20;;;2.50;99.90;;;;;;5035890;28;20209;-87
2022/01/17 01:13:30;;;;;;;14.53;9.87;;;2.60;99.90;;;;;;5036944;28;20256;-87
2022/01/17 01:29:05;;;;;;;14.57;9.73;;;2.50;99.90;;;;;;5051977;28;20275;-87
2022/01/17 01:31:51;;;;;;;15.77;9.97;;;2.50;99.90;;;;;;5052258;28;20193;-87
2022/01/17 01:34:19;;;;;;;12.03;8.20;;;2.50;99.90;;;;;;5035502;28;20178;-87
2022/01/17 01:36:48;;;;;;;13.30;8.87;;;2.50;99.90;;;;;;5035509;28;20182;-87
2022/01/17 01:39:21;;;;;;;13.50;8.60;;;2.50;99.90;;;;;;5034607;28;20277;-87
2022/01/17 01:41:47;;;;;;;13.37;8.10;;;2.50;99.90;;;;;;5035515;28;20202;-87
2022/01/17 01:44:19;;;;;;;14.73;8.57;;;2.50;99.90;;;;;;5035329;28;20181;-87
2022/01/17 01:46:47;;;;;;;15.07;9.40;;;2.50;99.90;;;;;;5035401;28;20264;-87
2022/01/17 01:49:15;;;;;;;12.43;8.13;;;2.50;99.90;;;;;;5035108;28;20185;-87
2022/01/17 01:52:03;;;;;;;11.70;7.57;;;2.50;99.90;;;;;;5035283;28;20200;-87
2022/01/17 01:54:29;;;;;;;13.07;8.20;;;2.50;99.90;;;;;;5035110;28;20169;-87
2022/01/17 01:56:55;;;;;;;12.53;8.00;;;2.50;99.90;;;;;;5035225;28;20184;-87
2022/01/17 02:03:07;;;;;;;16.07;8.90;;;2.50;99.90;;;;;;5052886;28;20165;-89
2022/01/17 02:05:33;;;;;;;13.97;8.70;;;2.50;99.90;;;;;;5034913;28;20638;-90
2022/01/17 02:07:59;;;;;;;15.13;9.87;;;2.50;99.90;;;;;;5051389;28;20304;-89
2022/01/17 02:10:25;;;;;;;13.60;8.37;;;2.40;99.90;;;;;;5034970;28;20181;-90
2022/01/17 02:12:51;;;;;;;14.17;8.70;;;2.40;99.90;;;;;;5034835;28;20308;-90
2022/01/17 02:15:18;;;;;;;14.00;8.83;;;2.40;99.90;;;;;;5034764;28;20245;-89
2022/01/17 02:17:53;;;;;;;14.03;9.13;;;2.40;99.90;;;;;;5051298;28;20225;-90
2022/01/17 02:20:46;;;;;;;13.83;9.07;;;2.50;99.90;;;;;;5034758;28;20204;-89
2022/01/17 02:23:15;;;;;;;14.90;9.00;;;2.50;99.90;;;;;;5035049;28;20185;-90
2022/01/17 02:25:41;;;;;;;14.00;9.07;;;2.50;99.90;;;;;;5035229;28;20285;-90
2022/01/17 02:28:07;;;;;;;16.37;9.37;;;2.50;99.90;;;;;;5051183;28;20615;-90
2022/01/17 02:30:33;;;;;;;14.77;9.40;;;2.50;99.90;;;;;;5034662;28;20235;-90
2022/01/17 02:33:00;;;;;;;12.23;8.17;;;2.50;99.90;;;;;;5034917;28;20229;-90
2022/01/17 02:35:27;;;;;;;12.37;8.43;;;2.50;99.90;;;;;;5035072;28;20204;-89
2022/01/17 02:37:53;;;;;;;14.30;9.20;;;2.50;99.90;;;;;;5050982;28;20181;-89
2022/01/17 02:40:20;;;;;;;13.87;9.27;;;2.50;99.90;;;;;;5034883;28;20209;-90
2022/01/17 02:43:02;;;;;;;14.07;9.20;;;2.50;99.90;;;;;;5034531;28;20206;-89
2022/01/17 02:46:24;;;;;;;15.77;9.30;;;2.50;99.90;;;;;;5034995;28;20203;-89
2022/01/17 02:48:26;;;;;;;14.90;9.50;;;2.50;99.90;;;;;;5051154;28;20208;-89
2022/01/17 02:50:52;;;;;;;14.83;9.20;;;2.50;99.90;;;;;;5037099;28;20229;-90
2022/01/17 02:53:18;;;;;;;14.30;9.47;;;2.50;99.90;;;;;;5038571;28;20634;-90
2022/01/17 02:55:55;;;;;;;14.93;8.70;;;2.40;99.90;;;;;;5038567;28;20182;-89
2022/01/17 02:58:23;;;;;;;14.40;8.90;;;2.50;99.90;;;;;;5038617;28;20177;-90
2022/01/17 03:01:06;;;;;;;14.47;8.50;;;2.50;99.90;;;;;;5038242;28;20237;-90
2022/01/17 03:03:32;;;;;;;14.47;8.37;;;2.50;99.90;;;;;;5038683;28;20173;-90
2022/01/17 03:05:58;;;;;;;14.70;8.53;;;2.50;99.90;;;;;;5038344;28;20193;-89
2022/01/17 03:08:28;;;;;;;15.13;8.93;;;2.50;99.90;;;;;;5038445;28;20212;-89
2022/01/17 03:10:55;;;;;;;15.23;9.03;;;2.50;99.90;;;;;;5038320;28;20204;-90
2022/01/17 03:13:31;;;;;;;14.03;8.37;;;2.50;99.90;;;;;;5038134;28;20552;-90
2022/01/17 03:15:59;;;;;;;13.30;8.30;;;2.50;99.90;;;;;;5037331;28;20177;-90
2022/01/17 03:18:30;;;;;;;15.43;8.50;;;2.50;99.90;;;;;;5037603;28;20268;-90
2022/01/17 03:20:57;;;;;;;13.07;8.27;;;2.50;99.90;;;;;;5038322;28;20300;-90
2022/01/17 03:23:23;;;;;;;13.20;8.50;;;2.60;99.90;;;;;;5037972;28;20264;-89
2022/01/17 03:25:50;;;;;;;15.70;9.80;;;2.50;99.90;;;;;;5038206;28;20204;-90
2022/01/17 03:28:16;;;;;;;13.60;8.93;;;2.60;99.90;;;;;;5037506;28;20233;-90
2022/01/17 03:30:42;;;;;;;13.40;8.10;;;2.60;99.90;;;;;;5037711;28;20609;-89
2022/01/17 03:33:11;;;;;;;14.13;8.80;;;2.60;99.90;;;;;;5037673;28;20174;-89
2022/01/17 03:35:38;;;;;;;14.50;9.10;;;2.60;99.90;;;;;;5038081;28;20181;-90
2022/01/17 03:38:09;;;;;;;14.90;8.47;;;2.60;99.90;;;;;;5037483;28;20232;-90
2022/01/17 03:40:36;;;;;;;13.10;8.73;;;2.60;99.90;;;;;;5037584;28;20184;-90
2022/01/17 03:43:03;;;;;;;13.07;8.70;;;2.60;99.90;;;;;;5054093;28;20178;-90
2022/01/17 03:45:29;;;;;;;12.83;8.37;;;2.60;99.90;;;;;;5037902;28;20182;-90
2022/01/17 03:47:55;;;;;;;12.53;7.97;;;2.60;99.90;;;;;;5037498;28;20267;-90
2022/01/17 03:50:26;;;;;;;14.20;8.10;;;2.60;99.90;;;;;;5037681;28;20200;-90
2022/01/17 03:52:52;;;;;;;13.17;8.07;;;2.60;99.90;;;;;;5037759;28;20330;-90
2022/01/17 03:55:20;;;;;;;14.00;7.83;;;2.60;99.90;;;;;;5054020;28;20249;-89
2022/01/17 03:57:47;;;;;;;14.03;9.03;;;2.70;99.90;;;;;;5037151;28;20181;-89
2022/01/17 04:00:29;;;;;;;13.57;8.03;;;2.60;99.90;;;;;;5036869;28;20189;-89
2022/01/17 04:02:55;;;;;;;10.67;7.43;;;2.60;99.90;;;;;;5053238;28;20204;-89
2022/01/17 04:05:22;;;;;;;14.87;8.33;;;2.70;99.90;;;;;;5037471;28;20184;-89
2022/01/17 04:07:48;;;;;;;12.60;7.67;;;2.70;99.90;;;;;;5036931;28;20233;-90
2022/01/17 04:10:15;;;;;;;13.27;8.07;;;2.70;99.90;;;;;;5037460;28;20182;-89
2022/01/17 04:12:42;;;;;;;13.00;8.33;;;2.70;99.90;;;;;;5036969;28;20259;-89
2022/01/17 04:15:08;;;;;;;11.87;7.60;;;2.70;99.90;;;;;;5036988;28;20197;-89
2022/01/17 04:17:35;;;;;;;11.33;8.03;;;2.70;99.90;;;;;;5037060;28;20241;-89
2022/01/17 04:20:07;;;;;;;11.80;7.47;;;2.70;99.90;;;;;;5053560;28;20277;-90
2022/01/17 04:22:38;;;;;;;13.97;7.77;;;2.70;99.90;;;;;;5036815;28;20212;-89
2022/01/17 04:25:22;;;;;;;12.60;7.87;;;2.70;99.90;;;;;;5053139;28;20281;-89
2022/01/17 04:27:49;;;;;;;13.87;7.47;;;2.70;99.90;;;;;;5036388;28;20577;-89
2022/01/17 04:30:15;;;;;;;12.33;6.80;;;2.70;99.90;;;;;;5035591;28;20219;-89
2022/01/17 04:32:43;;;;;;;12.97;7.90;;;2.70;99.90;;;;;;5035758;28;20248;-89
2022/01/17 04:35:11;;;;;;;13.67;7.67;;;2.70;99.90;;;;;;5036991;28;20181;-89
2022/01/17 04:37:38;;;;;;;11.70;7.70;;;2.70;99.90;;;;;;5036880;28;20197;-90
2022/01/17 04:40:07;;;;;;;11.53;7.67;;;2.70;99.90;;;;;;5037134;28;20184;-89
2022/01/17 04:42:34;;;;;;;14.00;8.83;;;2.70;99.90;;;;;;5036779;28;20198;-90
2022/01/17 04:45:11;;;;;;;11.87;7.13;;;2.70;99.90;;;;;;5036433;28;20178;-90
2022/01/17 04:47:40;;;;;;;10.83;7.83;;;2.70;99.90;;;;;;5036552;28;20301;-90
2022/01/17 04:50:12;;;;;;;11.83;8.07;;;2.70;99.90;;;;;;5036255;28;20212;-90
2022/01/17 04:52:38;;;;;;;11.00;7.93;;;2.70;99.90;;;;;;5036189;28;20570;-89
2022/01/17 04:55:08;;;;;;;11.50;7.30;;;2.70;99.90;;;;;;5036352;28;20178;-90
2022/01/17 04:57:34;;;;;;;11.30;8.00;;;2.70;99.90;;;;;;5036162;28;20178;-90
2022/01/17 04:59:59;;;;;;;15.30;8.50;;;2.70;99.90;;;;;;5035976;28;20189;-89
2022/01/17 05:03:20;;;;;;;11.97;7.87;;;2.70;99.90;;;;;;5036127;28;20279;-90
2022/01/17 05:05:46;;;;;;;12.53;7.83;;;2.70;99.90;;;;;;5037021;28;20241;-89
2022/01/17 05:08:35;;;;;;;12.03;7.93;;;2.70;99.90;;;;;;5036347;28;20198;-89
2022/01/17 05:11:01;;;;;;;11.93;7.57;;;2.70;99.90;;;;;;5036516;28;20289;-89
2022/01/17 05:13:33;;;;;;;13.53;8.43;;;2.70;99.90;;;;;;5035563;28;20273;-89
2022/01/17 05:16:13;;;;;;;11.67;7.70;;;2.70;99.90;;;;;;5036634;28;20202;-89
2022/01/17 05:21:05;;;;;;;13.47;7.60;;;2.60;99.90;;;;;;5053025;28;20201;-89
2022/01/17 05:23:31;;;;;;;10.20;7.30;;;2.60;99.90;;;;;;5036359;28;20285;-89
2022/01/17 05:25:56;;;;;;;12.03;7.30;;;2.70;99.90;;;;;;5036214;28;20260;-89
2022/01/17 05:28:23;;;;;;;11.13;6.50;;;2.70;99.90;;;;;;5053358;28;20222;-89
2022/01/17 05:30:49;;;;;;;10.23;6.73;;;2.70;99.90;;;;;;5024992;28;20248;-89
2022/01/17 05:33:15;;;;;;;12.07;7.53;;;2.70;99.90;;;;;;5023609;28;20210;-89
2022/01/17 05:35:41;;;;;;;12.23;7.27;;;2.70;99.90;;;;;;5018612;28;20178;-89
2022/01/17 05:38:08;;;;;;;14.50;7.57;;;2.70;99.90;;;;;;5016856;28;20209;-90
2022/01/17 05:40:39;;;;;;;9.40;6.73;;;2.70;99.90;;;;;;5017416;28;20189;-89
2022/01/17 05:43:05;;;;;;;10.20;6.67;;;2.70;99.90;;;;;;5015783;28;20264;-89
2022/01/17 05:45:31;;;;;;;12.47;7.03;;;2.70;99.90;;;;;;5015631;28;20229;-89
2022/01/17 05:47:57;;;;;;;11.17;6.57;;;2.70;99.90;;;;;;5015435;28;20198;-89
2022/01/17 05:50:23;;;;;;;12.97;7.17;;;2.80;99.90;;;;;;5016162;28;20187;-89
2022/01/17 05:52:49;;;;;;;11.67;8.10;;;2.70;99.90;;;;;;5015385;28;20198;-89
2022/01/17 05:55:15;;;;;;;12.53;7.73;;;2.70;99.90;;;;;;5015574;28;20171;-89
2022/01/17 05:57:42;;;;;;;12.90;8.17;;;2.70;99.90;;;;;;5015364;28;20182;-89
2022/01/17 06:00:10;;;;;;;12.47;8.30;;;2.70;99.90;;;;;;5015458;28;20178;-89
2022/01/17 06:03:09;;;;;;;11.97;8.17;;;2.70;99.90;;;;;;5032092;28;20347;-89
2022/01/17 06:05:35;;;;;;;11.80;7.53;;;2.80;99.90;;;;;;5016259;28;20228;-89
2022/01/17 06:08:01;;;;;;;11.00;7.50;;;2.80;99.90;;;;;;5015293;28;20214;-89
2022/01/17 06:13:50;;;;;;;10.53;6.93;;;2.80;99.90;;;;;;5032390;28;20167;-89
2022/01/17 06:16:16;;;;;;;11.73;7.43;;;2.80;99.90;;;;;;5049348;28;20175;-88
2022/01/17 06:19:05;;;;;;;11.33;7.30;;;2.90;99.90;;;;;;5015291;28;20546;-90
2022/01/17 06:21:31;;;;;;;11.30;7.03;;;2.90;99.90;;;;;;5015813;28;20206;-91
2022/01/17 06:24:00;;;;;;;11.10;6.93;;;2.90;99.90;;;;;;5015220;28;20221;-87
2022/01/17 06:26:26;;;;;;;13.13;7.90;;;2.90;99.90;;;;;;5015568;28;20179;-89
2022/01/17 06:28:52;;;;;;;11.93;8.00;;;2.90;99.90;;;;;;5016562;28;20257;-89
2022/01/17 06:31:18;;;;;;;13.87;8.60;;;2.90;99.90;;;;;;5033284;28;20250;-89
2022/01/17 06:33:43;;;;;;;11.07;7.53;;;2.90;99.90;;;;;;5072817;28;20292;-86
2022/01/17 06:36:09;;;;;;;23.37;14.27;;;2.90;99.90;;;;;;5046784;28;20174;-86
2022/01/17 06:38:36;;;;;;;63.20;33.00;;;2.90;99.90;;;;;;5034847;28;20192;-86
2022/01/17 06:41:02;;;;;;;60.23;30.80;;;2.90;99.90;;;;;;5034633;28;20202;-86
2022/01/17 06:43:27;;;;;;;30.70;17.90;;;2.90;99.90;;;;;;5051390;28;20185;-87
2022/01/17 06:45:53;;;;;;;23.37;13.00;;;2.90;99.90;;;;;;5034594;28;20185;-87
2022/01/17 06:48:19;;;;;;;14.23;9.07;;;2.90;99.90;;;;;;5034416;28;20210;-86
2022/01/17 06:50:45;;;;;;;10.67;7.83;;;2.90;99.90;;;;;;5034396;28;20201;-86
2022/01/17 06:53:11;;;;;;;11.43;7.80;;;2.90;99.90;;;;;;5051062;28;20181;-86
2022/01/17 06:55:37;;;;;;;10.57;7.10;;;2.90;99.90;;;;;;5034680;28;20185;-86
2022/01/17 06:58:03;;;;;;;10.53;7.30;;;2.90;99.90;;;;;;5034165;28;20182;-87
2022/01/17 07:00:29;;;;;;;11.23;7.93;;;2.90;99.90;;;;;;5034362;28;20711;-86
2022/01/17 07:02:55;;;;;;;11.73;7.33;;;2.90;99.90;;;;;;5034302;28;20272;-86
2022/01/17 07:05:21;;;;;;;13.27;7.23;;;2.90;99.90;;;;;;5034257;28;20189;-86
2022/01/17 07:07:46;;;;;;;10.93;7.50;;;2.90;99.90;;;;;;5033973;28;20217;-86
2022/01/17 07:10:12;;;;;;;10.57;7.17;;;2.90;99.90;;;;;;5034361;28;20190;-86
2022/01/17 07:12:38;;;;;;;13.17;7.17;;;2.90;99.90;;;;;;5034331;28;20202;-86
2022/01/17 07:15:08;;;;;;;13.00;7.70;;;3.00;99.90;;;;;;5034549;28;20174;-86
2022/01/17 07:17:34;;;;;;;13.40;7.67;;;3.00;99.90;;;;;;5034571;28;20182;-87
2022/01/17 07:20:01;;;;;;;11.17;7.40;;;3.10;99.90;;;;;;5034502;28;20250;-86
2022/01/17 07:22:27;;;;;;;10.50;7.13;;;3.00;99.90;;;;;;5067346;28;20208;-86
2022/01/17 07:24:55;;;;;;;13.30;8.30;;;3.10;99.90;;;;;;5034166;28;20224;-88
2022/01/17 07:27:21;;;;;;;11.90;7.83;;;3.10;99.90;;;;;;5034028;28;20701;-87
2022/01/17 07:29:46;;;;;;;10.83;7.30;;;3.10;99.90;;;;;;5034408;28;20214;-88
2022/01/17 07:32:12;;;;;;;12.27;8.60;;;3.10;99.90;;;;;;5050705;28;20186;-88
2022/01/17 07:34:38;;;;;;;11.10;7.90;;;3.10;99.90;;;;;;5034533;28;20184;-88
2022/01/17 07:37:04;;;;;;;11.73;8.20;;;3.00;99.90;;;;;;5034935;28;20178;-88
2022/01/17 07:39:30;;;;;;;12.40;8.00;;;3.00;99.90;;;;;;5038147;28;20178;-88
2022/01/17 07:41:56;;;;;;;12.87;7.47;;;3.00;99.90;;;;;;5037733;28;20209;-88
2022/01/17 07:44:24;;;;;;;13.30;8.40;;;3.00;99.90;;;;;;5037610;28;20170;-88
2022/01/17 07:47:00;;;;;;;13.10;8.00;;;3.00;99.90;;;;;;5037661;28;20192;-89
2022/01/17 07:49:26;;;;;;;11.97;7.93;;;3.00;99.90;;;;;;5037393;28;20177;-87
2022/01/17 07:51:59;;;;;;;12.07;7.83;;;3.00;99.90;;;;;;5037821;28;20201;-88
2022/01/17 07:54:31;;;;;;;11.80;7.37;;;3.00;99.90;;;;;;5054063;28;20596;-88
2022/01/17 07:56:59;;;;;;;11.67;7.47;;;3.10;99.90;;;;;;5054126;28;20185;-88
2022/01/17 07:59:25;;;;;;;12.40;7.63;;;3.10;99.90;;;;;;5037361;28;20188;-88
2022/01/17 08:01:51;;;;;;;13.03;8.17;;;3.10;99.90;;;;;;5037131;28;20198;-88
2022/01/17 08:04:17;;;;;;;12.27;8.77;;;3.20;99.90;;;;;;5037235;28;20189;-88
2022/01/17 08:06:46;;;;;;;12.37;7.97;;;3.20;99.90;;;;;;5037359;28;20209;-89
2022/01/17 08:09:18;;;;;;;12.13;8.30;;;3.20;99.90;;;;;;5036784;28;20670;-89
2022/01/17 08:11:44;;;;;;;12.73;8.10;;;3.20;99.90;;;;;;5037253;28;20669;-88
2022/01/17 08:14:10;;;;;;;11.37;8.10;;;3.20;99.90;;;;;;5036975;28;20204;-88
2022/01/17 08:16:36;;;;;;;10.53;7.33;;;3.20;99.90;;;;;;5036895;28;20173;-88
2022/01/17 08:19:02;;;;;;;10.70;8.03;;;3.20;99.90;;;;;;5037004;28;20602;-88
2022/01/17 08:21:48;;;;;;;10.70;7.17;;;3.30;99.90;;;;;;5037072;28;20224;-89
2022/01/17 08:24:14;;;;;;;11.40;7.60;;;3.30;99.90;;;;;;5037176;28;20208;-88
2022/01/17 08:26:43;;;;;;;12.27;7.40;;;3.30;99.90;;;;;;5037130;28;20221;-89
2022/01/17 08:29:12;;;;;;;11.00;8.10;;;3.30;99.90;;;;;;5036477;28;20201;-88
2022/01/17 08:31:38;;;;;;;11.53;7.50;;;3.30;99.90;;;;;;5036778;28;20194;-88
2022/01/17 08:34:04;;;;;;;11.53;7.47;;;3.30;99.90;;;;;;5036972;28;20241;-88
2022/01/17 08:36:46;;;;;;;9.90;6.97;;;3.30;99.90;;;;;;5036455;28;20253;-88
2022/01/17 08:39:14;;;;;;;11.23;7.87;;;3.40;99.90;;;;;;5036411;28;20261;-88
2022/01/17 08:41:43;;;;;;;11.87;7.43;;;3.40;99.90;;;;;;5036617;28;20208;-89
2022/01/17 08:44:13;;;;;;;11.67;7.90;;;3.40;99.90;;;;;;5036519;28;20190;-88
2022/01/17 08:46:40;;;;;;;10.13;7.43;;;3.40;99.90;;;;;;5037264;28;20178;-88
2022/01/17 08:49:06;;;;;;;10.63;8.30;;;3.40;99.90;;;;;;5036684;28;20202;-89
2022/01/17 08:51:32;;;;;;;10.33;6.67;;;3.40;99.90;;;;;;5036729;28;20194;-89
2022/01/17 08:53:59;;;;;;;10.93;7.17;;;3.50;99.90;;;;;;5037123;28;20261;-88
2022/01/17 08:56:27;;;;;;;12.73;7.60;;;3.50;99.90;;;;;;5036599;28;20181;-88
2022/01/17 08:58:54;;;;;;;11.57;7.70;;;3.60;99.90;;;;;;5036492;28;20273;-88
2022/01/17 09:01:19;;;;;;;11.40;7.73;;;3.60;99.90;;;;;;5035073;28;20263;-89
2022/01/17 09:03:47;;;;;;;10.23;6.53;;;3.70;99.90;;;;;;5036633;28;20213;-88
2022/01/17 09:06:13;;;;;;;16.20;7.60;;;3.70;99.90;;;;;;5036348;28;20182;-88
2022/01/17 09:08:39;;;;;;;10.03;6.90;;;3.70;99.90;;;;;;5035616;28;20216;-89
2022/01/17 09:11:05;;;;;;;10.17;7.07;;;3.80;99.90;;;;;;5036322;28;20198;-88
2022/01/17 09:13:31;;;;;;;10.90;7.43;;;3.80;99.90;;;;;;5027405;28;20189;-88
2022/01/17 09:16:37;;;;;;;13.00;7.67;;;3.80;99.90;;;;;;5051241;28;20186;-87
2022/01/17 09:19:07;;;;;;;14.27;7.70;;;3.90;99.90;;;;;;5047142;28;20315;-87
2022/01/17 09:21:33;;;;;;;9.33;6.87;;;3.90;99.90;;;;;;5043972;28;20198;-88
2022/01/17 09:23:58;;;;;;;10.53;7.50;;;3.90;99.90;;;;;;5035783;28;20193;-88
2022/01/17 09:26:26;;;;;;;11.43;7.40;;;3.90;99.90;;;;;;5052257;28;20287;-88
2022/01/17 09:28:52;;;;;;;11.07;7.33;;;3.90;99.90;;;;;;5024447;28;20221;-88
2022/01/17 09:31:18;;;;;;;10.47;6.57;;;4.00;99.90;;;;;;5016120;28;20198;-88
2022/01/17 09:33:44;;;;;;;12.60;7.40;;;4.00;99.90;;;;;;5028309;28;20182;-89
2022/01/17 09:36:10;;;;;;;10.03;7.00;;;4.00;99.90;;;;;;5061850;28;20197;-88
2022/01/17 09:38:36;;;;;;;10.30;7.27;;;4.00;99.90;;;;;;5035341;28;20178;-88
2022/01/17 09:41:03;;;;;;;11.03;7.47;;;4.10;99.90;;;;;;5035538;28;20202;-88
2022/01/17 09:43:29;;;;;;;10.43;6.90;;;4.10;99.90;;;;;;5032470;28;20189;-88
2022/01/17 09:45:56;;;;;;;10.80;6.50;;;4.10;99.90;;;;;;5043557;28;20178;-88
2022/01/17 09:48:24;;;;;;;10.10;7.20;;;4.10;99.90;;;;;;5035320;28;20256;-88
2022/01/17 09:51:02;;;;;;;8.53;6.93;;;4.10;99.90;;;;;;5031683;28;20788;-88
2022/01/17 09:53:50;;;;;;;9.23;6.90;;;4.10;99.90;;;;;;5025756;28;20185;-88
2022/01/17 09:56:17;;;;;;;8.27;6.27;;;4.10;99.90;;;;;;5051652;28;20165;-88
2022/01/17 09:58:45;;;;;;;9.93;6.90;;;4.20;99.90;;;;;;5035030;28;20225;-88
2022/01/17 10:01:11;;;;;;;8.70;6.47;;;4.20;99.90;;;;;;5051557;28;20312;-89
2022/01/17 10:03:38;;;;;;;9.83;6.37;;;4.20;99.90;;;;;;5040772;28;20223;-88
2022/01/17 10:06:04;;;;;;;10.23;7.00;;;4.30;99.90;;;;;;5031864;28;20635;-88
2022/01/17 10:12:05;;;;;;;9.70;6.57;;;4.40;99.90;;;;;;5032259;28;20234;-86
2022/01/17 10:14:38;;;;;;;10.70;7.37;;;4.40;99.90;;;;;;5015996;28;20186;-88
2022/01/17 10:17:50;;;;;;;10.17;6.27;;;4.40;99.90;;;;;;5015738;28;20178;-88
2022/01/17 10:20:18;;;;;;;8.17;5.43;;;4.40;99.90;;;;;;5015813;28;20190;-87
2022/01/17 10:22:55;;;;;;;10.13;6.30;;;4.50;99.90;;;;;;5015745;28;20257;-87
2022/01/17 10:31:22;;;;;;;7.83;5.37;;;4.60;99.90;;;;;;5032202;28;20226;-87
2022/01/17 10:37:12;;;;;;;8.13;5.40;;;4.70;99.90;;;;;;5048002;28;20180;-89
2022/01/17 10:39:57;;;;;;;7.33;5.40;;;4.80;99.90;;;;;;5014823;28;20163;-89
2022/01/17 10:42:26;;;;;;;7.47;5.17;;;4.70;99.90;;;;;;5023609;28;20229;-88
2022/01/17 10:44:52;;;;;;;7.30;5.20;;;4.70;99.90;;;;;;5015608;28;20182;-89
2022/01/17 10:47:29;;;;;;;6.80;4.60;;;4.70;99.90;;;;;;5015306;28;20187;-89
2022/01/17 10:50:01;;;;;;;7.57;5.27;;;4.70;99.90;;;;;;5015096;28;20193;-88
2022/01/17 10:52:38;;;;;;;7.13;5.03;;;4.70;99.90;;;;;;5016036;28;20573;-88
2022/01/17 10:55:48;;;;;;;5.50;4.20;;;4.70;99.90;;;;;;5017112;28;20175;-88
2022/01/17 10:58:32;;;;;;;6.40;4.47;;;4.80;99.90;;;;;;5032163;28;20182;-88
2022/01/17 11:01:06;;;;;;;5.87;4.10;;;4.80;99.90;;;;;;5048347;28;20211;-88
2022/01/17 11:03:34;;;;;;;5.33;4.13;;;4.80;99.90;;;;;;5038522;28;20203;-88
2022/01/17 11:06:06;;;;;;;6.27;4.20;;;4.90;99.90;;;;;;5015928;28;20195;-88
2022/01/17 11:08:35;;;;;;;6.27;3.90;;;4.90;99.90;;;;;;5014968;28;20221;-88
2022/01/17 11:11:11;;;;;;;5.03;4.00;;;5.00;99.90;;;;;;5034502;28;20195;-88
2022/01/17 11:14:07;;;;;;;8.20;4.20;;;5.30;99.90;;;;;;5038173;28;20178;-89
2022/01/17 11:16:36;;;;;;;5.80;4.07;;;5.60;99.90;;;;;;5034132;28;20172;-88
2022/01/17 11:20:02;;;;;;;6.77;4.40;;;5.70;99.90;;;;;;5018515;28;20234;-88
2022/01/17 11:21:52;;;;;;;6.83;4.40;;;5.70;99.90;;;;;;5045952;28;20306;-88
2022/01/17 11:24:20;;;;;;;6.53;3.90;;;5.70;99.90;;;;;;5035177;28;20193;-88
2022/01/17 11:26:47;;;;;;;6.20;4.30;;;5.70;99.90;;;;;;5033714;28;20188;-89
2022/01/17 11:29:15;;;;;;;4.57;3.77;;;5.60;99.90;;;;;;5039088;28;20246;-88
2022/01/17 11:31:44;;;;;;;5.40;3.70;;;5.50;99.90;;;;;;5054983;28;20220;-88
2022/01/17 11:34:13;;;;;;;7.33;4.87;;;5.50;99.90;;;;;;5071217;28;20267;-88
2022/01/17 11:36:40;;;;;;;6.13;4.37;;;5.50;99.90;;;;;;5054410;28;20187;-88
2022/01/17 11:39:08;;;;;;;7.17;4.47;;;5.50;99.90;;;;;;5054112;28;20191;-88
2022/01/17 11:41:35;;;;;;;5.63;4.50;;;5.60;99.90;;;;;;5054717;28;20200;-88
2022/01/17 11:44:04;;;;;;;9.03;5.90;;;5.60;99.90;;;;;;5054845;28;20185;-89
2022/01/17 11:47:07;;;;;;;7.83;5.00;;;5.50;99.90;;;;;;5054832;28;20464;-88
2022/01/17 11:49:37;;;;;;;9.53;5.00;;;5.50;99.90;;;;;;5054397;28;20229;-88
2022/01/17 11:52:29;;;;;;;5.47;3.80;;;5.50;99.90;;;;;;5054737;28;20207;-88
2022/01/17 11:54:54;;;;;;;5.07;3.70;;;5.40;99.90;;;;;;5054392;28;20187;-88
2022/01/17 11:57:23;;;;;;;3.93;3.30;;;5.40;99.90;;;;;;5053875;28;20266;-88
2022/01/17 11:59:51;;;;;;;4.47;4.00;;;5.30;99.90;;;;;;5054282;28;20265;-88
2022/01/17 12:02:33;;;;;;;4.13;3.30;;;5.30;99.90;;;;;;5054208;28;20200;-88
2022/01/17 12:05:08;;;;;;;5.43;3.83;;;5.40;99.90;;;;;;5054082;28;20174;-88
2022/01/17 12:07:49;;;;;;;4.80;3.40;;;5.60;99.90;;;;;;5053681;28;20210;-88
2022/01/17 12:10:40;;;;;;;6.07;2.80;;;5.80;99.90;;;;;;5070650;28;20173;-88
2022/01/17 12:13:42;;;;;;;3.20;2.60;;;6.00;99.90;;;;;;5045248;28;20198;-88
2022/01/17 12:16:20;;;;;;;4.37;2.60;;;6.10;99.90;;;;;;5053732;28;20180;-88
2022/01/17 12:18:54;;;;;;;5.90;3.50;;;6.10;99.90;;;;;;5052447;28;20223;-88
2022/01/17 12:21:28;;;;;;;4.47;3.00;;;6.10;99.90;;;;;;5053596;28;20227;-88
2022/01/17 12:24:23;;;;;;;3.23;2.47;;;6.10;99.90;;;;;;5053025;28;20264;-88
2022/01/17 12:27:01;;;;;;;3.57;2.67;;;5.90;99.90;;;;;;5053845;28;20180;-88
2022/01/17 12:29:40;;;;;;;2.77;2.33;;;5.90;99.90;;;;;;5053324;28;20216;-88
2022/01/17 12:32:18;;;;;;;4.60;2.13;;;6.00;99.90;;;;;;5053657;28;20199;-88
2022/01/17 12:34:44;;;;;;;2.97;2.43;;;6.20;99.90;;;;;;5036816;28;20634;-88
2022/01/17 12:37:31;;;;;;;4.80;2.60;;;6.30;99.90;;;;;;5053487;28;20390;-88
2022/01/17 12:40:12;;;;;;;2.63;2.00;;;6.30;99.90;;;;;;5053337;28;20184;-90
2022/01/17 12:42:59;;;;;;;2.70;2.00;;;6.30;99.90;;;;;;5037420;28;20212;-89
2022/01/17 12:45:32;;;;;;;2.43;2.20;;;6.20;99.90;;;;;;5037739;28;20268;-89
2022/01/17 12:48:00;;;;;;;3.13;2.20;;;6.10;99.90;;;;;;5036690;28;20203;-89
2022/01/17 12:50:28;;;;;;;4.47;3.23;;;6.00;99.90;;;;;;5037010;28;20184;-89
2022/01/17 12:52:56;;;;;;;3.77;2.90;;;5.90;99.90;;;;;;5037099;28;20577;-89
2022/01/17 12:55:23;;;;;;;4.13;3.20;;;5.90;99.90;;;;;;5037312;28;20179;-89
2022/01/17 12:57:50;;;;;;;3.63;3.10;;;5.80;99.90;;;;;;5049916;28;20185;-89
2022/01/17 13:00:19;;;;;;;6.37;2.97;;;5.70;99.90;;;;;;5017035;28;20189;-90
2022/01/17 13:02:52;;;;;;;4.77;3.37;;;5.70;99.90;;;;;;5020150;28;20204;-90
2022/01/17 13:05:28;;;;;;;2.67;2.47;;;5.60;99.90;;;;;;5036586;28;20197;-89
2022/01/17 13:07:54;;;;;;;3.13;2.47;;;5.50;99.90;;;;;;5036246;28;20234;-90
2022/01/17 13:10:21;;;;;;;2.43;2.10;;;5.40;99.90;;;;;;5036309;28;20178;-89
2022/01/17 13:12:51;;;;;;;2.97;2.30;;;5.40;99.90;;;;;;5036448;28;20200;-89
2022/01/17 13:15:18;;;;;;;2.23;2.00;;;5.40;99.90;;;;;;5053045;28;20178;-89
2022/01/17 13:17:44;;;;;;;3.47;2.60;;;5.40;99.90;;;;;;5036498;28;20203;-90
2022/01/17 13:20:11;;;;;;;2.27;2.00;;;5.30;99.90;;;;;;5036729;28;20180;-90
2022/01/17 13:22:51;;;;;;;2.93;2.33;;;5.30;99.90;;;;;;5026402;28;20204;-89
2022/01/17 13:25:17;;;;;;;2.03;1.83;;;5.30;99.90;;;;;;5058726;28;20187;-90
2022/01/17 13:27:44;;;;;;;2.63;2.27;;;5.30;99.90;;;;;;5051601;28;20216;-90
2022/01/17 13:30:14;;;;;;;3.50;2.10;;;5.30;99.90;;;;;;5043775;28;20205;-89
2022/01/17 13:32:42;;;;;;;3.80;2.13;;;5.30;99.90;;;;;;5034674;28;20196;-90
2022/01/17 13:35:16;;;;;;;2.90;2.10;;;5.30;99.90;;;;;;5027954;28;20185;-89
2022/01/17 13:37:42;;;;;;;2.37;2.17;;;5.30;99.90;;;;;;5021083;28;20173;-89
2022/01/17 13:40:16;;;;;;;2.33;2.00;;;5.20;99.90;;;;;;5023308;28;20190;-89
2022/01/17 13:42:54;;;;;;;2.30;2.00;;;5.30;99.90;;;;;;5035821;28;20200;-89